createdAt,value
2018-06-02T00:02:03.656Z,94.08
2018-06-02T00:04:30.745Z,94.18
2018-06-02T00:06:57.755Z,94.21
2018-06-02T00:09:24.812Z,94.21
2018-06-02T00:11:51.822Z,94.09
2018-06-02T00:14:19.251Z,94.17
2018-06-02T00:16:46.266Z,94.00
2018-06-02T00:19:13.476Z,93.97
2018-06-02T00:21:40.561Z,94.17
2018-06-02T00:24:07.806Z,94.33
2018-06-02T00:26:34.840Z,94.33
2018-06-02T00:29:01.843Z,94.25
2018-06-02T00:31:28.881Z,94.03
2018-06-02T00:33:55.952Z,94.28
2018-06-02T00:36:22.987Z,94.36
2018-06-02T00:38:50.066Z,94.55
2018-06-02T00:41:17.108Z,94.54
2018-06-02T00:43:44.263Z,94.55
2018-06-02T00:46:11.405Z,94.70
2018-06-02T00:48:38.510Z,94.75
2018-06-02T00:51:05.511Z,94.82
2018-06-02T00:53:32.546Z,94.63
2018-06-02T00:55:59.570Z,94.77
2018-06-02T00:58:27.140Z,94.92
2018-06-02T01:00:54.176Z,94.87
2018-06-02T01:03:21.202Z,94.64
2018-06-02T01:05:48.232Z,94.31
2018-06-02T01:08:15.287Z,94.31
2018-06-02T01:10:42.308Z,94.32
2018-06-02T01:13:09.352Z,94.49
2018-06-02T01:15:36.385Z,94.63
2018-06-02T01:18:03.406Z,94.76
2018-06-02T01:20:30.420Z,94.89
2018-06-02T01:22:57.601Z,94.94
2018-06-02T01:25:24.708Z,95.21
2018-06-02T01:27:51.740Z,95.49
2018-06-02T01:30:19.280Z,95.47
2018-06-02T01:32:46.530Z,94.96
2018-06-02T01:35:13.581Z,94.59
2018-06-02T01:37:40.676Z,94.60
2018-06-02T01:40:07.693Z,94.86
2018-06-02T01:42:34.787Z,95.17
2018-06-02T01:45:01.802Z,95.37
2018-06-02T01:47:28.788Z,95.26
2018-06-02T01:49:55.801Z,95.11
2018-06-02T01:52:22.821Z,95.27
2018-06-02T01:54:49.873Z,95.47
2018-06-02T01:57:16.876Z,95.38
2018-06-02T01:59:43.891Z,95.35
2018-06-02T02:02:10.883Z,95.20
2018-06-02T02:04:37.912Z,95.15
2018-06-02T02:07:04.913Z,95.25
2018-06-02T02:09:31.916Z,95.28
2018-06-02T02:11:59.112Z,95.01
2018-06-02T02:14:26.175Z,94.95
2018-06-02T02:16:53.175Z,94.94
2018-06-02T02:19:20.248Z,95.01
2018-06-02T02:21:47.261Z,95.22
2018-06-02T02:24:14.295Z,95.21
2018-06-02T02:26:41.310Z,95.57
2018-06-02T02:29:08.316Z,95.71
2018-06-02T02:31:35.310Z,95.71
2018-06-02T02:34:02.538Z,96.16
2018-06-02T02:36:29.556Z,96.12
2018-06-02T02:38:56.582Z,96.01
2018-06-02T02:41:23.599Z,95.98
2018-06-02T02:43:50.578Z,95.82
2018-06-02T02:46:17.581Z,95.83
2018-06-02T02:48:44.626Z,95.78
2018-06-02T02:51:11.650Z,95.70
2018-06-02T02:53:38.706Z,95.47
2018-06-02T02:56:05.711Z,95.24
2018-06-02T02:58:32.841Z,95.23
2018-06-02T03:00:59.831Z,95.38
2018-06-02T03:03:26.829Z,95.50
2018-06-02T03:05:53.836Z,95.60
2018-06-02T03:08:21.275Z,95.55
2018-06-02T03:10:48.273Z,95.54
2018-06-02T03:13:15.296Z,95.44
2018-06-02T03:15:42.292Z,95.42
2018-06-02T03:18:09.363Z,95.42
2018-06-02T03:20:36.356Z,95.47
2018-06-02T03:23:03.456Z,95.40
2018-06-02T03:25:30.464Z,95.28
2018-06-02T03:27:57.472Z,95.20
2018-06-02T03:30:24.469Z,94.93
2018-06-02T03:32:51.459Z,94.81
2018-06-02T03:35:18.492Z,95.10
2018-06-02T03:37:45.664Z,95.46
2018-06-02T03:40:12.705Z,95.51
2018-06-02T03:42:39.714Z,95.56
2018-06-02T03:45:06.751Z,95.07
2018-06-02T03:47:33.901Z,94.93
2018-06-02T03:50:00.927Z,95.24
2018-06-02T03:52:27.961Z,95.40
2018-06-02T03:54:55.011Z,95.56
2018-06-02T03:57:22.032Z,95.60
2018-06-02T03:59:49.050Z,95.65
2018-06-02T04:02:16.061Z,95.67
2018-06-02T04:04:43.768Z,95.63
2018-06-02T04:07:10.863Z,95.30
2018-06-02T04:09:37.873Z,94.70
2018-06-02T04:12:05.057Z,94.34
2018-06-02T04:14:32.066Z,93.91
2018-06-02T04:16:59.168Z,93.92
2018-06-02T04:19:26.184Z,94.30
2018-06-02T04:21:53.882Z,94.01
2018-06-02T04:24:20.867Z,93.62
2018-06-02T04:26:47.853Z,93.67
2018-06-02T04:29:15.137Z,92.75
2018-06-02T04:31:42.998Z,92.17
2018-06-02T04:34:09.993Z,91.87
2018-06-02T04:36:37.132Z,91.92
2018-06-02T04:39:04.148Z,91.47
2018-06-02T04:41:31.154Z,90.95
2018-06-02T04:43:58.118Z,91.08
2018-06-02T04:46:25.371Z,90.97
2018-06-02T04:48:52.434Z,90.92
2018-06-02T04:51:19.442Z,90.41
2018-06-02T04:53:46.428Z,90.38
2018-06-02T04:56:13.432Z,89.72
2018-06-02T04:58:40.438Z,89.15
2018-06-02T05:01:07.446Z,89.01
2018-06-02T05:03:34.466Z,88.27
2018-06-02T05:06:01.473Z,87.45
2018-06-02T05:08:28.495Z,87.49
2018-06-02T05:10:55.633Z,87.38
2018-06-02T05:13:22.676Z,87.49
2018-06-02T05:15:49.704Z,87.29
2018-06-02T05:18:16.719Z,86.28
2018-06-02T05:20:43.888Z,84.60
2018-06-02T05:23:10.893Z,82.58
2018-06-02T05:25:37.901Z,79.62
2018-06-02T05:28:04.884Z,77.78
2018-06-02T05:30:31.969Z,75.42
2018-06-02T05:32:58.968Z,73.12
2018-06-02T05:35:25.967Z,72.49
2018-06-02T05:37:53.222Z,71.93
2018-06-02T05:40:20.214Z,71.83
2018-06-02T05:42:47.303Z,70.20
2018-06-02T05:45:14.328Z,68.25
2018-06-02T05:47:41.358Z,66.64
2018-06-02T05:50:08.437Z,64.66
2018-06-02T05:52:35.447Z,63.69
2018-06-02T05:55:02.463Z,61.70
2018-06-02T05:57:29.469Z,61.25
2018-06-02T05:59:56.508Z,60.07
2018-06-02T06:02:23.620Z,59.58
2018-06-02T06:04:50.605Z,58.01
2018-06-02T06:07:17.619Z,58.90
2018-06-02T06:09:44.608Z,58.22
2018-06-02T06:12:11.588Z,57.25
2018-06-02T06:14:38.572Z,56.86
2018-06-02T06:17:05.566Z,55.26
2018-06-02T06:19:33.074Z,53.45
2018-06-02T06:22:00.488Z,54.95
2018-06-02T06:24:27.560Z,52.97
2018-06-02T06:26:54.582Z,51.45
2018-06-02T06:29:21.559Z,50.42
2018-06-02T06:31:49.028Z,50.32
2018-06-02T06:34:16.022Z,49.30
2018-06-02T06:36:43.015Z,49.45
2018-06-02T06:39:10.017Z,49.58
2018-06-02T06:41:37.038Z,49.14
2018-06-02T06:44:04.039Z,48.32
2018-06-02T06:46:31.081Z,48.47
2018-06-02T06:48:58.018Z,47.85
2018-06-02T06:51:25.043Z,45.77
2018-06-02T06:53:52.495Z,44.64
2018-06-02T06:56:20.045Z,45.24
2018-06-02T06:58:47.500Z,44.19
2018-06-02T07:01:14.940Z,43.69
2018-06-02T07:03:42.404Z,43.71
2018-06-02T07:06:09.493Z,42.57
2018-06-02T07:08:37.070Z,41.31
2018-06-02T07:11:04.519Z,41.69
2018-06-02T07:13:32.647Z,41.00
2018-06-02T07:15:59.679Z,39.64
2018-06-02T07:18:27.139Z,37.97
2018-06-02T07:20:54.679Z,37.52
2018-06-02T07:23:22.124Z,37.79
2018-06-02T07:25:49.570Z,37.66
2018-06-02T07:28:17.010Z,37.38
2018-06-02T07:30:44.494Z,36.08
2018-06-02T07:33:12.119Z,35.97
2018-06-02T07:35:39.570Z,34.74
2018-06-02T07:38:07.020Z,34.26
2018-06-02T07:40:34.483Z,33.93
2018-06-02T07:43:01.965Z,33.55
2018-06-02T07:45:29.410Z,31.91
2018-06-02T07:47:56.909Z,31.77
2018-06-02T07:50:26.881Z,31.54
2018-06-02T07:52:56.287Z,30.42
2018-06-02T07:55:23.732Z,32.14
2018-06-02T07:57:51.173Z,29.98
2018-06-02T08:00:18.778Z,29.32
2018-06-02T08:02:46.416Z,29.75
2018-06-02T08:05:13.873Z,35.07
2018-06-02T08:07:41.455Z,37.29
2018-06-02T08:10:09.019Z,37.97
2018-06-02T08:12:36.485Z,38.50
2018-06-02T08:15:04.128Z,40.40
2018-06-02T08:17:31.650Z,42.49
2018-06-02T08:19:59.315Z,39.36
2018-06-02T08:22:26.774Z,35.26
2018-06-02T08:24:54.209Z,33.50
2018-06-02T08:27:21.709Z,34.26
2018-06-02T08:29:49.225Z,34.69
2018-06-02T08:32:16.673Z,35.90
2018-06-02T08:34:44.200Z,38.86
2018-06-02T08:37:11.657Z,41.20
2018-06-02T08:39:38.718Z,43.26
2018-06-02T08:42:05.728Z,44.43
2018-06-02T08:44:32.749Z,44.92
2018-06-02T08:46:59.957Z,46.01
2018-06-02T08:49:27.235Z,47.38
2018-06-02T08:51:54.279Z,49.10
2018-06-02T08:54:21.434Z,50.11
2018-06-02T08:56:48.393Z,50.59
2018-06-02T08:59:15.379Z,50.42
2018-06-02T09:01:42.578Z,50.26
2018-06-02T09:04:09.614Z,50.78
2018-06-02T09:06:36.672Z,48.50
2018-06-02T09:09:03.659Z,47.99
2018-06-02T09:11:30.664Z,48.56
2018-06-02T09:13:57.938Z,48.98
2018-06-02T09:16:25.134Z,47.69
2018-06-02T09:18:52.160Z,46.15
2018-06-02T09:21:19.233Z,44.30
2018-06-02T09:23:47.035Z,42.49
2018-06-02T09:26:14.499Z,40.06
2018-06-02T09:32:03.410Z,31.23
2018-06-02T09:34:32.006Z,28.66
2018-06-02T09:40:21.110Z,33.03
2018-06-02T09:42:48.759Z,35.76
2018-06-02T09:45:16.220Z,37.59
2018-06-02T09:47:43.722Z,39.11
2018-06-02T09:50:12.178Z,40.64
2018-06-02T09:56:00.670Z,41.65
2018-06-02T09:58:28.207Z,43.33
2018-06-02T10:06:44.626Z,47.58
2018-06-02T10:09:12.211Z,47.81
2018-06-02T10:11:40.091Z,47.10
2018-06-02T10:14:07.541Z,46.00
2018-06-02T10:16:35.194Z,42.09
2018-06-02T10:19:02.642Z,35.86
2018-06-02T10:21:30.109Z,29.85
2018-06-02T10:23:57.755Z,27.50
2018-06-02T10:26:25.201Z,26.44
2018-06-02T10:28:52.643Z,23.82
2018-06-02T10:31:20.094Z,23.98
2018-06-02T10:33:47.749Z,22.35
2018-06-02T10:36:15.215Z,20.51
2018-06-02T10:38:42.678Z,21.44
2018-06-02T10:41:10.137Z,20.07
2018-06-02T10:43:37.620Z,19.36
2018-06-02T10:46:05.081Z,17.84
2018-06-02T10:48:32.524Z,18.53
2018-06-02T10:50:59.956Z,20.33
2018-06-02T10:53:27.421Z,22.65
2018-06-02T10:55:54.875Z,23.00
2018-06-02T10:58:22.434Z,23.42
2018-06-02T11:00:50.017Z,25.14
2018-06-02T11:03:17.477Z,26.47
2018-06-02T11:05:44.930Z,27.45
2018-06-02T11:08:12.430Z,24.71
2018-06-02T11:10:39.913Z,24.61
2018-06-02T11:13:07.379Z,25.18
2018-06-02T11:15:34.822Z,27.13
2018-06-02T11:18:02.431Z,27.49
2018-06-02T11:20:29.876Z,24.68
2018-06-02T11:22:57.335Z,22.79
2018-06-02T11:25:24.792Z,21.20
2018-06-02T11:27:52.272Z,19.74
2018-06-02T11:30:19.882Z,19.10
2018-06-02T11:32:47.357Z,19.04
2018-06-02T11:35:14.805Z,18.83
2018-06-02T11:37:42.262Z,18.13
2018-06-02T11:40:09.700Z,19.62
2018-06-02T11:42:37.218Z,18.77
2018-06-02T11:45:04.680Z,18.72
2018-06-02T11:47:32.326Z,18.43
2018-06-02T11:49:59.769Z,18.96
2018-06-02T11:52:27.242Z,19.65
2018-06-02T11:54:54.703Z,18.79
2018-06-02T11:57:22.175Z,19.91
2018-06-02T11:59:49.686Z,22.29
2018-06-02T12:02:17.111Z,23.27
2018-06-02T12:04:44.576Z,25.37
2018-06-02T12:07:12.072Z,28.42
2018-06-02T12:09:39.535Z,27.90
2018-06-02T12:12:06.995Z,27.91
2018-06-02T12:14:34.581Z,29.87
2018-06-02T12:17:02.042Z,30.26
2018-06-02T12:19:29.513Z,30.08
2018-06-02T12:21:56.948Z,28.67
2018-06-02T12:24:24.536Z,28.48
2018-06-02T12:26:51.986Z,27.50
2018-06-02T12:29:19.503Z,25.95
2018-06-02T12:31:46.930Z,25.36
2018-06-02T12:34:14.377Z,24.16
2018-06-02T12:36:41.866Z,23.80
2018-06-02T12:39:09.353Z,23.46
2018-06-02T12:41:36.870Z,23.66
2018-06-02T12:44:04.327Z,24.35
2018-06-02T12:46:31.872Z,24.75
2018-06-02T12:48:59.496Z,26.27
2018-06-02T12:51:26.961Z,25.82
2018-06-02T12:53:54.428Z,25.44
2018-06-02T12:56:21.913Z,27.07
2018-06-02T12:58:49.367Z,27.87
2018-06-02T13:01:16.921Z,28.33
2018-06-02T13:03:44.377Z,29.85
2018-06-02T13:06:11.821Z,30.07
2018-06-02T13:08:39.353Z,30.47
2018-06-02T13:11:06.816Z,28.87
2018-06-02T13:13:34.245Z,29.61
2018-06-02T13:16:01.708Z,30.51
2018-06-02T13:18:29.166Z,29.78
2018-06-02T13:20:56.615Z,30.43
2018-06-02T13:23:24.066Z,29.94
2018-06-02T13:25:51.505Z,29.43
2018-06-02T13:28:18.962Z,30.66
2018-06-02T13:30:46.411Z,30.73
2018-06-02T13:33:13.876Z,32.20
2018-06-02T13:35:41.501Z,32.76
2018-06-02T13:38:09.017Z,32.25
2018-06-02T13:40:36.553Z,31.99
2018-06-02T13:43:04.047Z,34.27
2018-06-02T13:45:31.501Z,33.27
2018-06-02T13:47:58.527Z,34.80
2018-06-02T13:50:25.542Z,33.31
2018-06-02T13:52:53.023Z,33.47
2018-06-02T13:55:20.843Z,35.14
2018-06-02T13:57:48.297Z,34.73
2018-06-02T14:00:15.494Z,33.49
2018-06-02T14:02:42.517Z,34.11
2018-06-02T14:05:09.569Z,34.90
2018-06-02T14:07:37.146Z,35.52
2018-06-02T14:10:04.603Z,34.54
2018-06-02T14:12:32.227Z,34.84
2018-06-02T14:14:59.708Z,34.35
2018-06-02T14:17:26.773Z,36.65
2018-06-02T14:19:54.259Z,35.63
2018-06-02T14:22:21.720Z,35.13
2018-06-02T14:24:49.167Z,34.62
2018-06-02T14:27:16.193Z,36.03
2018-06-02T14:29:43.662Z,36.76
2018-06-02T14:32:10.649Z,36.73
2018-06-02T14:34:37.651Z,36.94
2018-06-02T14:37:04.676Z,37.10
2018-06-02T14:39:32.163Z,37.44
2018-06-02T14:41:59.162Z,37.88
2018-06-02T14:44:26.169Z,37.86
2018-06-02T14:46:53.241Z,37.97
2018-06-02T14:49:20.718Z,37.80
2018-06-02T14:51:47.711Z,40.05
2018-06-02T14:54:15.343Z,39.34
2018-06-02T14:56:42.392Z,38.61
2018-06-02T14:59:09.391Z,38.78
2018-06-02T15:01:36.526Z,37.68
2018-06-02T15:04:03.973Z,37.59
2018-06-02T15:06:30.997Z,37.74
2018-06-02T15:08:58.445Z,37.67
2018-06-02T15:11:25.899Z,39.34
2018-06-02T15:13:53.417Z,38.96
2018-06-02T15:16:20.920Z,39.01
2018-06-02T15:18:47.948Z,39.93
2018-06-02T15:21:15.422Z,41.17
2018-06-02T15:23:42.429Z,41.02
2018-06-02T15:26:09.884Z,41.76
2018-06-02T15:28:36.913Z,42.55
2018-06-02T15:31:03.952Z,41.75
2018-06-02T15:33:30.974Z,42.47
2018-06-02T15:35:57.956Z,42.32
2018-06-02T15:38:25.651Z,41.16
2018-06-02T15:40:53.126Z,41.90
2018-06-02T15:43:20.627Z,42.51
2018-06-02T15:45:48.099Z,43.21
2018-06-02T15:48:15.197Z,42.62
2018-06-02T15:50:42.158Z,41.40
2018-06-02T15:53:09.159Z,40.90
2018-06-02T15:55:36.154Z,40.86
2018-06-02T15:58:03.618Z,40.18
2018-06-02T16:00:31.077Z,39.55
2018-06-02T16:02:58.602Z,38.86
2018-06-02T16:05:26.057Z,39.01
2018-06-02T16:07:53.549Z,38.56
2018-06-02T16:10:21.101Z,39.30
2018-06-02T16:12:48.203Z,39.42
2018-06-02T16:15:15.318Z,40.08
2018-06-02T16:17:42.762Z,39.95
2018-06-02T16:20:09.812Z,41.24
2018-06-02T16:22:37.274Z,42.09
2018-06-02T16:25:04.287Z,43.51
2018-06-02T16:27:31.761Z,43.68
2018-06-02T16:29:59.223Z,44.80
2018-06-02T16:32:26.874Z,43.78
2018-06-02T16:34:54.344Z,43.27
2018-06-02T16:37:21.807Z,43.47
2018-06-02T16:39:48.812Z,43.77
2018-06-02T16:42:16.296Z,43.89
2018-06-02T16:44:43.785Z,43.45
2018-06-02T16:47:11.232Z,43.68
2018-06-02T16:49:38.706Z,43.86
2018-06-02T16:52:06.413Z,43.92
2018-06-02T16:54:34.028Z,43.33
2018-06-02T16:57:01.602Z,43.74
2018-06-02T16:59:29.077Z,43.21
2018-06-02T17:01:56.543Z,43.29
2018-06-02T17:04:24.066Z,43.87
2018-06-02T17:06:51.524Z,43.39
2018-06-02T17:09:18.993Z,43.47
2018-06-02T17:11:46.469Z,42.98
2018-06-02T17:14:13.916Z,42.79
2018-06-02T17:16:41.374Z,43.51
2018-06-02T17:19:08.815Z,43.91
2018-06-02T17:21:36.294Z,44.00
2018-06-02T17:24:03.739Z,43.86
2018-06-02T17:26:31.527Z,44.27
2018-06-02T17:28:58.963Z,44.28
2018-06-02T17:31:26.411Z,44.75
2018-06-02T17:33:53.869Z,45.80
2018-06-02T17:36:21.329Z,46.04
2018-06-02T17:38:48.821Z,46.80
2018-06-02T17:41:16.319Z,47.37
2018-06-02T17:43:43.791Z,47.43
2018-06-02T17:46:11.262Z,47.49
2018-06-02T17:48:38.703Z,47.97
2018-06-02T17:51:06.188Z,48.88
2018-06-02T17:53:33.774Z,49.05
2018-06-02T17:56:01.252Z,49.50
2018-06-02T17:58:28.708Z,49.84
2018-06-02T18:00:56.212Z,50.38
2018-06-02T18:03:23.683Z,50.82
2018-06-02T18:05:51.278Z,51.20
2018-06-02T18:08:19.342Z,51.78
2018-06-02T18:10:46.830Z,52.17
2018-06-02T18:13:14.274Z,52.55
2018-06-02T18:15:41.761Z,53.43
2018-06-02T18:18:09.228Z,53.73
2018-06-02T18:20:36.751Z,54.12
2018-06-02T18:23:04.205Z,54.14
2018-06-02T18:25:31.693Z,55.06
2018-06-02T18:27:59.204Z,55.46
2018-06-02T18:30:26.700Z,55.42
2018-06-02T18:32:54.142Z,55.36
2018-06-02T18:35:21.687Z,55.11
2018-06-02T18:37:49.178Z,54.35
2018-06-02T18:40:16.694Z,53.57
2018-06-02T18:42:44.335Z,53.36
2018-06-02T18:45:11.988Z,53.68
2018-06-02T18:47:39.477Z,54.19
2018-06-02T18:50:06.953Z,54.60
2018-06-02T18:52:34.614Z,55.33
2018-06-02T18:55:02.077Z,56.19
2018-06-02T18:57:29.573Z,56.86
2018-06-02T18:59:57.064Z,57.63
2018-06-02T19:02:24.542Z,58.27
2018-06-02T19:04:52.094Z,59.69
2018-06-02T19:07:19.576Z,60.07
2018-06-02T19:09:47.093Z,60.50
2018-06-02T19:12:14.574Z,60.57
2018-06-02T19:14:42.056Z,61.70
2018-06-02T19:17:09.518Z,62.86
2018-06-02T19:19:36.974Z,64.08
2018-06-02T19:22:04.422Z,64.70
2018-06-02T19:24:31.889Z,64.39
2018-06-02T19:26:59.371Z,65.41
2018-06-02T19:29:26.960Z,65.87
2018-06-02T19:31:54.449Z,66.17
2018-06-02T19:34:21.923Z,65.98
2018-06-02T19:36:49.415Z,66.45
2018-06-02T19:39:16.994Z,66.97
2018-06-02T19:41:44.463Z,67.29
2018-06-02T19:44:12.269Z,68.73
2018-06-02T19:46:40.090Z,68.92
2018-06-02T19:49:07.710Z,69.59
2018-06-02T19:51:35.259Z,69.12
2018-06-02T19:54:02.762Z,68.57
2018-06-02T19:56:30.209Z,69.11
2018-06-02T19:58:57.671Z,69.83
2018-06-02T20:01:25.789Z,70.82
2018-06-02T20:03:53.310Z,71.54
2018-06-02T20:06:20.791Z,72.04
2018-06-02T20:09:22.627Z,73.88
2018-06-02T20:11:50.500Z,73.95
2018-06-02T20:14:19.015Z,74.23
2018-06-02T20:16:46.752Z,75.03
2018-06-02T20:19:14.829Z,76.27
2018-06-02T20:21:42.564Z,77.36
2018-06-02T20:24:10.650Z,77.96
2018-06-02T20:26:38.476Z,78.70
2018-06-02T20:29:06.349Z,78.51
2018-06-02T20:31:34.476Z,79.25
2018-06-02T20:34:02.991Z,79.82
2018-06-02T20:36:30.885Z,80.07
2018-06-02T20:38:58.780Z,80.80
2018-06-02T20:41:27.203Z,80.87
2018-06-02T20:43:55.064Z,81.03
2018-06-02T20:46:22.882Z,81.82
2018-06-02T20:48:50.795Z,82.10
2018-06-02T20:51:20.739Z,82.28
2018-06-02T20:53:48.564Z,82.62
2018-06-02T20:56:16.586Z,82.29
2018-06-02T20:58:44.325Z,82.16
2018-06-02T21:01:12.153Z,81.94
2018-06-02T21:03:39.939Z,82.30
2018-06-02T21:06:07.773Z,81.94
2018-06-02T21:08:35.761Z,81.75
2018-06-02T21:11:03.525Z,81.53
2018-06-02T21:13:31.298Z,81.15
2018-06-02T21:15:59.458Z,81.61
2018-06-02T21:18:27.178Z,81.40
2018-06-02T21:20:55.028Z,82.00
2018-06-02T21:23:22.876Z,82.13
2018-06-02T21:25:50.680Z,82.67
2018-06-02T21:28:18.404Z,82.65
2018-06-02T21:30:46.129Z,83.21
2018-06-02T21:33:13.924Z,83.75
2018-06-02T21:35:41.658Z,83.72
2018-06-02T21:38:09.489Z,84.42
2018-06-02T21:40:37.320Z,84.93
2018-06-02T21:43:05.156Z,84.98
2018-06-02T21:45:32.939Z,85.08
2018-06-02T21:48:01.592Z,85.16
2018-06-02T21:50:29.590Z,85.47
2018-06-02T21:52:57.358Z,85.65
2018-06-02T21:55:25.166Z,86.23
2018-06-02T21:57:52.884Z,86.86
2018-06-02T22:00:20.839Z,86.73
2018-06-02T22:02:49.358Z,87.66
2018-06-02T22:05:17.075Z,87.69
2018-06-02T22:07:44.820Z,87.40
2018-06-02T22:10:12.514Z,87.61
2018-06-02T22:12:40.975Z,87.60
2018-06-02T22:15:09.067Z,87.62
2018-06-02T22:17:36.769Z,87.42
2018-06-02T22:20:04.686Z,87.45
2018-06-02T22:22:32.486Z,87.86
2018-06-02T22:25:00.205Z,88.38
2018-06-02T22:27:27.953Z,88.64
2018-06-02T22:29:55.859Z,88.68
2018-06-02T22:32:23.709Z,88.37
2018-06-02T22:34:51.442Z,88.43
2018-06-02T22:37:19.146Z,88.60
2018-06-02T22:39:47.820Z,88.62
2018-06-02T22:42:15.630Z,88.44
2018-06-02T22:44:43.500Z,88.17
2018-06-02T22:47:11.351Z,88.23
2018-06-02T22:49:39.092Z,87.82
2018-06-02T22:52:06.886Z,88.29
2018-06-02T22:54:34.878Z,88.84
2018-06-02T22:57:02.751Z,88.99
2018-06-02T22:59:30.550Z,88.13
2018-06-02T23:01:58.360Z,88.54
2018-06-02T23:04:26.104Z,88.67
2018-06-02T23:06:55.294Z,88.97
2018-06-02T23:09:24.553Z,89.15
2018-06-02T23:11:52.399Z,89.85
2018-06-02T23:14:20.255Z,89.77
2018-06-02T23:16:48.860Z,89.51
2018-06-02T23:19:17.925Z,89.86
2018-06-02T23:21:46.631Z,90.25
2018-06-02T23:24:15.483Z,90.89
2018-06-02T23:26:44.079Z,91.29
2018-06-02T23:29:11.891Z,91.59
2018-06-02T23:31:40.488Z,90.97
2018-06-02T23:34:09.025Z,91.46
2018-06-02T23:36:37.633Z,91.46
2018-06-02T23:39:07.136Z,91.72
2018-06-02T23:41:35.709Z,91.33
2018-06-02T23:44:03.561Z,91.16
2018-06-02T23:46:31.363Z,91.77
2018-06-02T23:48:59.885Z,91.77
2018-06-02T23:51:28.419Z,91.36
2018-06-02T23:53:57.004Z,91.39
2018-06-02T23:56:25.571Z,91.70
2018-06-02T23:58:53.286Z,92.00
